sensor_id;sensor_type;location;lat;lon;timestamp;temperature;humidity
39103;DHT22;24847;48.218;16.414;2023-08-06T00:04:51;16.20;99.90
39103;DHT22;24847;48.218;16.414;2023-08-06T00:09:53;16.20;99.90
39103;DHT22;24847;48.218;16.414;2023-08-06T00:14:57;16.30;99.90
39103;DHT22;24847;48.218;16.414;2023-08-06T00:19:59;16.40;99.90
39103;DHT22;24847;48.218;16.414;2023-08-06T00:25:06;16.20;99.90
39103;DHT22;24847;48.218;16.414;2023-08-06T00:30:10;16.30;99.90
39103;DHT22;24847;48.218;16.414;2023-08-06T00:35:13;16.40;99.90
39103;DHT22;24847;48.218;16.414;2023-08-06T00:40:15;16.20;99.90
39103;DHT22;24847;48.218;16.414;2023-08-06T00:45:19;16.00;99.90
39103;DHT22;24847;48.218;16.414;2023-08-06T00:50:21;16.20;99.90
39103;DHT22;24847;48.218;16.414;2023-08-06T00:55:23;16.10;99.90
39103;DHT22;24847;48.218;16.414;2023-08-06T01:00:27;16.10;99.90
39103;DHT22;24847;48.218;16.414;2023-08-06T01:05:29;16.10;99.90
39103;DHT22;24847;48.218;16.414;2023-08-06T01:10:40;16.20;99.90
39103;DHT22;24847;48.218;16.414;2023-08-06T01:15:56;16.00;99.90
39103;DHT22;24847;48.218;16.414;2023-08-06T01:21:01;15.80;99.90
39103;DHT22;24847;48.218;16.414;2023-08-06T01:26:11;15.80;99.90
39103;DHT22;24847;48.218;16.414;2023-08-06T01:31:20;16.00;99.90
39103;DHT22;24847;48.218;16.414;2023-08-06T01:36:26;15.70;99.90
39103;DHT22;24847;48.218;16.414;2023-08-06T01:41:30;15.80;99.90
39103;DHT22;24847;48.218;16.414;2023-08-06T01:46:32;15.90;99.90
39103;DHT22;24847;48.218;16.414;2023-08-06T01:51:36;15.60;99.90
39103;DHT22;24847;48.218;16.414;2023-08-06T01:56:38;15.70;99.90
39103;DHT22;24847;48.218;16.414;2023-08-06T02:01:41;15.80;99.90
39103;DHT22;24847;48.218;16.414;2023-08-06T02:06:44;15.70;99.90
39103;DHT22;24847;48.218;16.414;2023-08-06T02:11:46;15.60;99.90
39103;DHT22;24847;48.218;16.414;2023-08-06T02:16:49;15.70;99.90
39103;DHT22;24847;48.218;16.414;2023-08-06T02:21:52;15.60;99.90
39103;DHT22;24847;48.218;16.414;2023-08-06T02:26:55;15.70;99.90
39103;DHT22;24847;48.218;16.414;2023-08-06T02:31:57;15.50;99.90
39103;DHT22;24847;48.218;16.414;2023-08-06T02:37:03;15.60;99.90
39103;DHT22;24847;48.218;16.414;2023-08-06T02:42:06;15.60;99.90
39103;DHT22;24847;48.218;16.414;2023-08-06T02:47:09;15.40;99.90
39103;DHT22;24847;48.218;16.414;2023-08-06T02:52:13;15.60;99.90
39103;DHT22;24847;48.218;16.414;2023-08-06T02:57:15;15.60;99.90
39103;DHT22;24847;48.218;16.414;2023-08-06T03:02:18;15.40;99.90
39103;DHT22;24847;48.218;16.414;2023-08-06T03:07:21;15.40;99.90
39103;DHT22;24847;48.218;16.414;2023-08-06T03:12:23;15.60;99.90
39103;DHT22;24847;48.218;16.414;2023-08-06T03:17:26;15.50;99.90
39103;DHT22;24847;48.218;16.414;2023-08-06T03:22:29;15.60;99.90
39103;DHT22;24847;48.218;16.414;2023-08-06T03:27:31;15.50;99.90
39103;DHT22;24847;48.218;16.414;2023-08-06T03:32:33;15.70;99.90
39103;DHT22;24847;48.218;16.414;2023-08-06T03:37:37;15.70;99.90
39103;DHT22;24847;48.218;16.414;2023-08-06T03:42:39;15.70;99.90
39103;DHT22;24847;48.218;16.414;2023-08-06T03:47:42;15.70;99.90
39103;DHT22;24847;48.218;16.414;2023-08-06T03:52:46;15.90;99.90
39103;DHT22;24847;48.218;16.414;2023-08-06T03:57:48;15.90;99.90
39103;DHT22;24847;48.218;16.414;2023-08-06T04:02:50;15.90;99.90
39103;DHT22;24847;48.218;16.414;2023-08-06T04:07:53;15.90;99.90
39103;DHT22;24847;48.218;16.414;2023-08-06T04:12:56;15.80;99.90
39103;DHT22;24847;48.218;16.414;2023-08-06T04:17:58;15.90;99.90
39103;DHT22;24847;48.218;16.414;2023-08-06T04:23:06;15.90;99.90
39103;DHT22;24847;48.218;16.414;2023-08-06T04:28:09;15.90;99.90
39103;DHT22;24847;48.218;16.414;2023-08-06T04:33:12;15.90;99.90
39103;DHT22;24847;48.218;16.414;2023-08-06T04:38:15;15.80;99.90
39103;DHT22;24847;48.218;16.414;2023-08-06T04:43:17;15.90;99.90
39103;DHT22;24847;48.218;16.414;2023-08-06T04:48:20;15.80;99.90
39103;DHT22;24847;48.218;16.414;2023-08-06T04:53:24;16.00;99.90
39103;DHT22;24847;48.218;16.414;2023-08-06T04:58:26;15.90;99.90
39103;DHT22;24847;48.218;16.414;2023-08-06T05:03:28;15.90;99.90
39103;DHT22;24847;48.218;16.414;2023-08-06T05:08:32;16.00;99.90
39103;DHT22;24847;48.218;16.414;2023-08-06T05:13:34;15.80;99.90
39103;DHT22;24847;48.218;16.414;2023-08-06T05:18:37;16.00;99.90
39103;DHT22;24847;48.218;16.414;2023-08-06T05:23:41;16.00;99.90
39103;DHT22;24847;48.218;16.414;2023-08-06T05:28:43;15.90;99.90
39103;DHT22;24847;48.218;16.414;2023-08-06T05:33:45;16.10;99.90
39103;DHT22;24847;48.218;16.414;2023-08-06T05:38:49;15.90;99.90
39103;DHT22;24847;48.218;16.414;2023-08-06T05:43:51;16.10;99.90
39103;DHT22;24847;48.218;16.414;2023-08-06T05:48:53;16.10;99.90
39103;DHT22;24847;48.218;16.414;2023-08-06T05:53:57;16.10;99.90
39103;DHT22;24847;48.218;16.414;2023-08-06T05:58:59;16.00;99.90
39103;DHT22;24847;48.218;16.414;2023-08-06T06:04:02;16.20;99.90
39103;DHT22;24847;48.218;16.414;2023-08-06T06:09:06;16.20;99.90
39103;DHT22;24847;48.218;16.414;2023-08-06T06:14:08;16.20;99.90
39103;DHT22;24847;48.218;16.414;2023-08-06T06:19:10;16.20;99.90
39103;DHT22;24847;48.218;16.414;2023-08-06T06:24:14;16.30;99.90
39103;DHT22;24847;48.218;16.414;2023-08-06T06:29:16;16.20;99.90
39103;DHT22;24847;48.218;16.414;2023-08-06T06:34:18;16.30;99.90
39103;DHT22;24847;48.218;16.414;2023-08-06T06:39:22;16.30;99.90
39103;DHT22;24847;48.218;16.414;2023-08-06T06:44:24;16.20;99.90
39103;DHT22;24847;48.218;16.414;2023-08-06T06:49:27;16.30;99.90
39103;DHT22;24847;48.218;16.414;2023-08-06T06:54:30;16.30;99.90
39103;DHT22;24847;48.218;16.414;2023-08-06T06:59:32;16.40;99.90
39103;DHT22;24847;48.218;16.414;2023-08-06T07:04:35;16.30;99.90
39103;DHT22;24847;48.218;16.414;2023-08-06T07:09:38;16.50;99.90
39103;DHT22;24847;48.218;16.414;2023-08-06T07:14:40;16.40;99.90
39103;DHT22;24847;48.218;16.414;2023-08-06T07:19:43;16.60;99.90
39103;DHT22;24847;48.218;16.414;2023-08-06T07:24:46;16.60;99.90
39103;DHT22;24847;48.218;16.414;2023-08-06T07:29:49;16.60;99.90
39103;DHT22;24847;48.218;16.414;2023-08-06T07:34:51;16.70;99.90
39103;DHT22;24847;48.218;16.414;2023-08-06T07:39:59;16.80;99.90
39103;DHT22;24847;48.218;16.414;2023-08-06T07:45:02;16.90;99.90
39103;DHT22;24847;48.218;16.414;2023-08-06T07:50:05;16.90;99.90
39103;DHT22;24847;48.218;16.414;2023-08-06T07:55:09;16.90;99.90
39103;DHT22;24847;48.218;16.414;2023-08-06T08:00:12;16.90;99.90
39103;DHT22;24847;48.218;16.414;2023-08-06T08:05:14;16.90;99.90
39103;DHT22;24847;48.218;16.414;2023-08-06T08:10:18;16.90;99.90
39103;DHT22;24847;48.218;16.414;2023-08-06T08:15:20;16.80;99.90
39103;DHT22;24847;48.218;16.414;2023-08-06T08:20:23;16.90;99.90
39103;DHT22;24847;48.218;16.414;2023-08-06T08:25:27;16.80;99.90
39103;DHT22;24847;48.218;16.414;2023-08-06T08:30:29;16.90;99.90
39103;DHT22;24847;48.218;16.414;2023-08-06T08:35:32;16.80;99.90
39103;DHT22;24847;48.218;16.414;2023-08-06T08:40:43;16.80;99.90
39103;DHT22;24847;48.218;16.414;2023-08-06T08:45:50;16.80;99.90
39103;DHT22;24847;48.218;16.414;2023-08-06T08:50:53;16.90;99.90
39103;DHT22;24847;48.218;16.414;2023-08-06T08:55:59;16.70;99.90
39103;DHT22;24847;48.218;16.414;2023-08-06T09:01:06;16.90;99.90
39103;DHT22;24847;48.218;16.414;2023-08-06T09:06:11;16.90;99.90
39103;DHT22;24847;48.218;16.414;2023-08-06T09:11:19;17.00;99.90
39103;DHT22;24847;48.218;16.414;2023-08-06T09:16:23;17.00;99.90
39103;DHT22;24847;48.218;16.414;2023-08-06T09:21:28;17.10;99.90
39103;DHT22;24847;48.218;16.414;2023-08-06T09:26:36;17.10;99.90
39103;DHT22;24847;48.218;16.414;2023-08-06T09:31:53;17.10;99.90
39103;DHT22;24847;48.218;16.414;2023-08-06T09:36:56;17.10;99.90
39103;DHT22;24847;48.218;16.414;2023-08-06T09:42:00;16.80;99.90
39103;DHT22;24847;48.218;16.414;2023-08-06T09:47:04;16.70;99.90
39103;DHT22;24847;48.218;16.414;2023-08-06T09:52:10;16.80;99.90
39103;DHT22;24847;48.218;16.414;2023-08-06T09:57:15;16.70;99.90
39103;DHT22;24847;48.218;16.414;2023-08-06T10:02:21;16.90;99.90
39103;DHT22;24847;48.218;16.414;2023-08-06T10:07:25;16.90;99.90
39103;DHT22;24847;48.218;16.414;2023-08-06T10:12:32;16.80;99.90
39103;DHT22;24847;48.218;16.414;2023-08-06T10:17:37;17.00;99.90
39103;DHT22;24847;48.218;16.414;2023-08-06T10:22:43;16.90;99.90
39103;DHT22;24847;48.218;16.414;2023-08-06T10:27:54;16.90;99.90
39103;DHT22;24847;48.218;16.414;2023-08-06T10:32:58;17.00;99.90
39103;DHT22;24847;48.218;16.414;2023-08-06T10:38:07;17.00;99.90
39103;DHT22;24847;48.218;16.414;2023-08-06T10:43:25;17.00;99.90
39103;DHT22;24847;48.218;16.414;2023-08-06T10:48:29;17.10;99.90
39103;DHT22;24847;48.218;16.414;2023-08-06T10:53:32;17.10;99.90
39103;DHT22;24847;48.218;16.414;2023-08-06T10:58:35;17.20;99.90
39103;DHT22;24847;48.218;16.414;2023-08-06T11:03:38;17.20;99.90
39103;DHT22;24847;48.218;16.414;2023-08-06T11:08:47;17.30;99.90
39103;DHT22;24847;48.218;16.414;2023-08-06T11:13:51;17.40;99.90
39103;DHT22;24847;48.218;16.414;2023-08-06T11:18:54;17.50;99.90
39103;DHT22;24847;48.218;16.414;2023-08-06T11:23:58;17.50;99.90
39103;DHT22;24847;48.218;16.414;2023-08-06T11:29:02;17.40;99.90
39103;DHT22;24847;48.218;16.414;2023-08-06T11:34:04;17.30;99.90
39103;DHT22;24847;48.218;16.414;2023-08-06T11:39:07;17.40;99.90
39103;DHT22;24847;48.218;16.414;2023-08-06T11:44:12;17.30;99.90
39103;DHT22;24847;48.218;16.414;2023-08-06T11:49:14;17.30;99.90
39103;DHT22;24847;48.218;16.414;2023-08-06T11:54:30;17.30;99.90
39103;DHT22;24847;48.218;16.414;2023-08-06T11:59:46;17.20;99.90
39103;DHT22;24847;48.218;16.414;2023-08-06T12:05:03;17.20;99.90
39103;DHT22;24847;48.218;16.414;2023-08-06T12:10:09;17.10;99.90
39103;DHT22;24847;48.218;16.414;2023-08-06T12:15:13;17.20;99.90
39103;DHT22;24847;48.218;16.414;2023-08-06T12:20:16;17.10;99.90
39103;DHT22;24847;48.218;16.414;2023-08-06T12:25:21;17.10;99.90
39103;DHT22;24847;48.218;16.414;2023-08-06T12:30:26;17.20;99.90
39103;DHT22;24847;48.218;16.414;2023-08-06T12:35:28;17.20;99.90
39103;DHT22;24847;48.218;16.414;2023-08-06T12:40:31;17.30;99.90
39103;DHT22;24847;48.218;16.414;2023-08-06T12:45:34;17.30;99.90
39103;DHT22;24847;48.218;16.414;2023-08-06T12:50:37;17.40;99.90
39103;DHT22;24847;48.218;16.414;2023-08-06T12:55:39;17.30;99.90
39103;DHT22;24847;48.218;16.414;2023-08-06T13:00:44;17.40;99.90
39103;DHT22;24847;48.218;16.414;2023-08-06T13:05:48;17.50;99.90
39103;DHT22;24847;48.218;16.414;2023-08-06T13:10:51;17.40;99.90
39103;DHT22;24847;48.218;16.414;2023-08-06T13:15:56;17.60;99.90
39103;DHT22;24847;48.218;16.414;2023-08-06T13:20:59;17.50;99.90
39103;DHT22;24847;48.218;16.414;2023-08-06T13:26:02;17.70;99.90
39103;DHT22;24847;48.218;16.414;2023-08-06T13:31:07;17.70;99.90
39103;DHT22;24847;48.218;16.414;2023-08-06T13:36:10;17.70;99.90
39103;DHT22;24847;48.218;16.414;2023-08-06T13:41:14;17.90;99.90
39103;DHT22;24847;48.218;16.414;2023-08-06T13:46:20;18.00;99.90
39103;DHT22;24847;48.218;16.414;2023-08-06T13:51:24;18.00;99.90
39103;DHT22;24847;48.218;16.414;2023-08-06T13:56:27;18.00;99.90
39103;DHT22;24847;48.218;16.414;2023-08-06T14:01:32;18.10;99.90
39103;DHT22;24847;48.218;16.414;2023-08-06T14:06:36;18.30;99.90
39103;DHT22;24847;48.218;16.414;2023-08-06T14:11:41;18.30;99.90
39103;DHT22;24847;48.218;16.414;2023-08-06T14:16:45;18.30;99.90
39103;DHT22;24847;48.218;16.414;2023-08-06T14:21:48;18.50;99.90
39103;DHT22;24847;48.218;16.414;2023-08-06T14:26:51;18.60;99.90
39103;DHT22;24847;48.218;16.414;2023-08-06T14:31:57;18.50;99.90
39103;DHT22;24847;48.218;16.414;2023-08-06T14:37:01;18.60;99.90
39103;DHT22;24847;48.218;16.414;2023-08-06T14:42:07;18.50;99.90
39103;DHT22;24847;48.218;16.414;2023-08-06T14:47:16;18.50;99.90
39103;DHT22;24847;48.218;16.414;2023-08-06T14:52:24;18.30;99.90
39103;DHT22;24847;48.218;16.414;2023-08-06T14:57:28;18.10;99.90
39103;DHT22;24847;48.218;16.414;2023-08-06T15:02:36;17.80;99.90
39103;DHT22;24847;48.218;16.414;2023-08-06T15:07:39;17.80;99.90
39103;DHT22;24847;48.218;16.414;2023-08-06T15:12:42;17.50;99.90
39103;DHT22;24847;48.218;16.414;2023-08-06T15:17:46;17.60;99.90
39103;DHT22;24847;48.218;16.414;2023-08-06T15:22:49;17.70;99.90
39103;DHT22;24847;48.218;16.414;2023-08-06T15:27:53;17.60;99.90
39103;DHT22;24847;48.218;16.414;2023-08-06T15:32:57;17.60;99.90
39103;DHT22;24847;48.218;16.414;2023-08-06T15:38:00;17.70;99.90
39103;DHT22;24847;48.218;16.414;2023-08-06T15:43:03;17.70;99.90
39103;DHT22;24847;48.218;16.414;2023-08-06T15:48:13;17.70;99.90
39103;DHT22;24847;48.218;16.414;2023-08-06T15:53:17;17.80;99.90
39103;DHT22;24847;48.218;16.414;2023-08-06T15:58:21;17.80;99.90
39103;DHT22;24847;48.218;16.414;2023-08-06T16:03:27;17.90;99.90
39103;DHT22;24847;48.218;16.414;2023-08-06T16:08:30;18.00;99.90
39103;DHT22;24847;48.218;16.414;2023-08-06T16:13:33;18.10;99.90
39103;DHT22;24847;48.218;16.414;2023-08-06T16:18:37;18.10;99.90
39103;DHT22;24847;48.218;16.414;2023-08-06T16:23:40;18.10;99.90
39103;DHT22;24847;48.218;16.414;2023-08-06T16:28:44;18.20;99.90
39103;DHT22;24847;48.218;16.414;2023-08-06T16:33:49;18.20;99.90
39103;DHT22;24847;48.218;16.414;2023-08-06T16:38:53;18.00;99.90
39103;DHT22;24847;48.218;16.414;2023-08-06T16:43:57;17.90;99.90
39103;DHT22;24847;48.218;16.414;2023-08-06T16:49:01;17.70;99.90
39103;DHT22;24847;48.218;16.414;2023-08-06T16:54:05;17.80;99.90
39103;DHT22;24847;48.218;16.414;2023-08-06T16:59:08;17.70;99.90
39103;DHT22;24847;48.218;16.414;2023-08-06T17:04:13;17.50;99.90
39103;DHT22;24847;48.218;16.414;2023-08-06T17:09:16;17.50;99.90
39103;DHT22;24847;48.218;16.414;2023-08-06T17:14:18;17.50;99.90
39103;DHT22;24847;48.218;16.414;2023-08-06T17:19:26;17.50;99.90
39103;DHT22;24847;48.218;16.414;2023-08-06T17:24:29;17.50;99.90
39103;DHT22;24847;48.218;16.414;2023-08-06T17:29:31;17.40;99.90
39103;DHT22;24847;48.218;16.414;2023-08-06T17:34:36;17.40;99.90
39103;DHT22;24847;48.218;16.414;2023-08-06T17:39:39;17.40;99.90
39103;DHT22;24847;48.218;16.414;2023-08-06T17:44:42;17.40;99.90
39103;DHT22;24847;48.218;16.414;2023-08-06T17:49:47;17.30;99.90
39103;DHT22;24847;48.218;16.414;2023-08-06T17:54:50;17.20;99.90
39103;DHT22;24847;48.218;16.414;2023-08-06T17:59:55;17.10;99.90
39103;DHT22;24847;48.218;16.414;2023-08-06T18:05:00;17.20;99.90
39103;DHT22;24847;48.218;16.414;2023-08-06T18:10:04;17.10;99.90
39103;DHT22;24847;48.218;16.414;2023-08-06T18:15:09;17.10;99.90
39103;DHT22;24847;48.218;16.414;2023-08-06T18:20:14;17.10;99.90
39103;DHT22;24847;48.218;16.414;2023-08-06T18:25:18;17.00;99.90
39103;DHT22;24847;48.218;16.414;2023-08-06T18:30:22;17.00;99.90
39103;DHT22;24847;48.218;16.414;2023-08-06T18:35:28;16.90;99.90
39103;DHT22;24847;48.218;16.414;2023-08-06T18:40:32;16.90;99.90
39103;DHT22;24847;48.218;16.414;2023-08-06T18:45:35;16.90;99.90
39103;DHT22;24847;48.218;16.414;2023-08-06T18:50:44;16.90;99.90
39103;DHT22;24847;48.218;16.414;2023-08-06T18:55:48;16.90;99.90
39103;DHT22;24847;48.218;16.414;2023-08-06T19:00:56;16.70;99.90
39103;DHT22;24847;48.218;16.414;2023-08-06T19:06:02;16.70;99.90
39103;DHT22;24847;48.218;16.414;2023-08-06T19:11:07;16.70;99.90
39103;DHT22;24847;48.218;16.414;2023-08-06T19:16:16;16.70;99.90
39103;DHT22;24847;48.218;16.414;2023-08-06T19:21:23;16.50;99.90
39103;DHT22;24847;48.218;16.414;2023-08-06T19:26:29;16.40;99.90
39103;DHT22;24847;48.218;16.414;2023-08-06T19:31:33;16.50;99.90
39103;DHT22;24847;48.218;16.414;2023-08-06T19:36:39;16.40;99.90
39103;DHT22;24847;48.218;16.414;2023-08-06T19:41:43;16.30;99.90
39103;DHT22;24847;48.218;16.414;2023-08-06T19:46:47;16.20;99.90
39103;DHT22;24847;48.218;16.414;2023-08-06T19:51:53;16.20;99.90
39103;DHT22;24847;48.218;16.414;2023-08-06T19:56:57;16.10;99.90
39103;DHT22;24847;48.218;16.414;2023-08-06T20:02:00;16.10;99.90
39103;DHT22;24847;48.218;16.414;2023-08-06T20:07:11;16.10;99.90
39103;DHT22;24847;48.218;16.414;2023-08-06T20:12:14;16.10;99.90
39103;DHT22;24847;48.218;16.414;2023-08-06T20:17:17;16.10;99.90
39103;DHT22;24847;48.218;16.414;2023-08-06T20:22:23;16.10;99.90
39103;DHT22;24847;48.218;16.414;2023-08-06T20:27:26;15.90;99.90
39103;DHT22;24847;48.218;16.414;2023-08-06T20:32:30;16.00;99.90
39103;DHT22;24847;48.218;16.414;2023-08-06T20:37:34;16.00;99.90
39103;DHT22;24847;48.218;16.414;2023-08-06T20:42:38;16.00;99.90
39103;DHT22;24847;48.218;16.414;2023-08-06T20:47:42;15.90;99.90
39103;DHT22;24847;48.218;16.414;2023-08-06T20:52:46;15.90;99.90
39103;DHT22;24847;48.218;16.414;2023-08-06T20:57:50;15.90;99.90
39103;DHT22;24847;48.218;16.414;2023-08-06T21:02:52;15.70;99.90
39103;DHT22;24847;48.218;16.414;2023-08-06T21:07:56;15.70;99.90
39103;DHT22;24847;48.218;16.414;2023-08-06T21:12:58;15.60;99.90
39103;DHT22;24847;48.218;16.414;2023-08-06T21:18:00;15.70;99.90
39103;DHT22;24847;48.218;16.414;2023-08-06T21:23:04;15.70;99.90
39103;DHT22;24847;48.218;16.414;2023-08-06T21:28:06;15.50;99.90
39103;DHT22;24847;48.218;16.414;2023-08-06T21:33:08;15.60;99.90
39103;DHT22;24847;48.218;16.414;2023-08-06T21:38:12;15.70;99.90
39103;DHT22;24847;48.218;16.414;2023-08-06T21:43:14;15.70;99.90
39103;DHT22;24847;48.218;16.414;2023-08-06T21:48:16;15.60;99.90
39103;DHT22;24847;48.218;16.414;2023-08-06T21:53:20;15.60;99.90
39103;DHT22;24847;48.218;16.414;2023-08-06T21:58:23;15.60;99.90
39103;DHT22;24847;48.218;16.414;2023-08-06T22:03:25;15.60;99.90
39103;DHT22;24847;48.218;16.414;2023-08-06T22:08:29;15.60;99.90
39103;DHT22;24847;48.218;16.414;2023-08-06T22:13:31;15.60;99.90
39103;DHT22;24847;48.218;16.414;2023-08-06T22:18:34;15.60;99.90
39103;DHT22;24847;48.218;16.414;2023-08-06T22:23:38;15.60;99.90
39103;DHT22;24847;48.218;16.414;2023-08-06T22:28:40;15.60;99.90
39103;DHT22;24847;48.218;16.414;2023-08-06T22:33:45;15.40;99.90
39103;DHT22;24847;48.218;16.414;2023-08-06T22:38:48;15.50;99.90
39103;DHT22;24847;48.218;16.414;2023-08-06T22:43:51;15.50;99.90
39103;DHT22;24847;48.218;16.414;2023-08-06T22:48:53;15.40;99.90
39103;DHT22;24847;48.218;16.414;2023-08-06T22:53:57;15.40;99.90
39103;DHT22;24847;48.218;16.414;2023-08-06T22:58:59;15.40;99.90
39103;DHT22;24847;48.218;16.414;2023-08-06T23:04:01;15.40;99.90
39103;DHT22;24847;48.218;16.414;2023-08-06T23:09:05;15.40;99.90
39103;DHT22;24847;48.218;16.414;2023-08-06T23:14:07;15.40;99.90
39103;DHT22;24847;48.218;16.414;2023-08-06T23:19:09;15.30;99.90
39103;DHT22;24847;48.218;16.414;2023-08-06T23:24:13;15.30;99.90
39103;DHT22;24847;48.218;16.414;2023-08-06T23:29:16;15.30;99.90
39103;DHT22;24847;48.218;16.414;2023-08-06T23:34:19;15.20;99.90
39103;DHT22;24847;48.218;16.414;2023-08-06T23:39:22;15.20;99.90
39103;DHT22;24847;48.218;16.414;2023-08-06T23:44:25;15.20;99.90
39103;DHT22;24847;48.218;16.414;2023-08-06T23:49:27;15.20;99.90
39103;DHT22;24847;48.218;16.414;2023-08-06T23:54:30;15.20;99.90
39103;DHT22;24847;48.218;16.414;2023-08-06T23:59:33;15.20;99.90
